Detall de PIREP

Printer-friendly versionPDF version

[2013/04/21 09:51:00]
Flight IATA:CT3103
Pilot Number:012
Company ICAO:CAT
Aircraft Type:F70/A
PAX:56
Aircraft Registration:PFJ
Departing Airport: LEPA
Destination Airport: LIEA
Alternate Airport:LIEO
Online: VATSIM
Route:MORSS UM603 ELSAG
Flight Level:F260
No Slew and time accel
No pause
Crash detect
Detect pilot in Cockpit between each 30 and 45 minutes
09:51 Zero fuel Weight: 66297 Lbs, Fuel Weight: 8013 Lbs
09:51 VATSIM:LEPA 210930Z 22011KT 190V260 9999 FEW020 18/09 Q1019 NOSIG
09:51 VATSIM:LIEA 210850Z 26014KT 9999 FEW020 SCT030 13/08 Q1016
09:51 VOICE CATALONIAN
09:52 Parking Brakes off
09:57 Take-off
09:57 Take off Weight: 74027 Lbs
09:57 Wind: 230º @ 011 Knots Heading: 238º
09:57 POS N39º 33´ 18´´ E002º 43´ 40´´
09:57 Gear Up: 154 Knots
09:57 Flaps:2 at 154 Knots
09:57 Flaps:1 at 172 Knots
09:57 Flaps:0 at 205 Knots
10:08 TOC
10:08 Fuel Weight: 6259 Lb
10:12 Wind:301º@068 Knots Heading: 057º Ground Speed: 476 Knots Altitude 26197 ft
10:27 Wind:305º@057 Knots Heading: 068º Ground Speed: 478 Knots Altitude 26128 ft
10:32 TOD
10:32 Fuel Weight: 4117 Lb
10:38 Flaps:1 at 237 Knots
10:42 Wind:298º@024 Knots Heading: 345º Ground Speed: 198 Knots Altitude 3579 ft
10:43 Flaps:2 at 186 Knots
10:43 Gear Down: 150 Knots
10:45 Flaps:3 at 137 Knots
10:45 Flaps:4 at 138 Knots
10:47 TouchDown:Rate -338 ft/min Speed: 106 Knots
10:48 VATSIM:LIEA 211020Z 28013KT 240V310 9999 FEW020 SCT030 14/08 Q1016
10:48 Land
10:48 Wind:270º@012 Knots
10:48 Heading: 198º
10:48 Flight Duration: 00:51
10:48 Landing Weight: 69920 Lbs
10:48 POS N40º 37´ 56´´ E008º 17´ 26´´
10:50 Parking brakes on
10:50 Block to Block Duration: 00:58
10:50 Final Fuel: 3522 Lbls
10:50 Spent Fuel: 4490 Lbls
10:50 Flight Length: 316 NM
10:50 TOD Land Length: 64 NM

Exportar CSV

Powered by Drupal - Modified by Danger4k